PWSweather.com
Personal Weather Stations
Station Observations
LENIOP
Colle Di Val D ElsaIT 53034

Colle Di Val D ElsaIT 53034

Lat: 43.26, Lon: 11.0006

Elevation: 244

Station Type: PCE-FWS 20

http://iz5ilj.altervista.org

Latest ConditionsUpdated 6:45:03 PM GMT+01:01 Monday, Jul 16, 2018
Currently Today's Max Today's Min Today's Average
Temperature 81.0°F27.2°C 86.9°F30.5°C 62.8°F17.1°C 75.8°F24.3°C
Dew Point 63.8°F17.7°C 66.9°F19.4°C 55.7°F13.2°C 61.8°F16.6°C
Winds 5.6 mph SE9.0 kmh SE 9.2 mph -14.8 kmh - - 3.8 mph 6.1 kmh
Wind Gusts 8.3 mph13.4 kmh 12.1 mph19.5 kmh - -
Humidity 56% 98% 43% 65%
Pressure 29.91 in1012.9 mb 30.07 in1018.3 mb 29.91 in1012.9 mb -
Hour Temp Dew Point Humidity Winds Wind Gusts Pressure Precip Precip Rate Daily Precip Total
06:45 PM 81.0°F27.2°C 63.8°F17.7°C 56% 5.6 mph SE9.0 kmh SE 8.3 mph13.4 kmh 29.91 in1012.9 mb 0.00 in0.0 mm 0.00 in0.0 mm 0.00 in0.0 mm
06:30 PM 81.1°F27.3°C 62.4°F16.9°C 53% 4.6 mph SE7.4 kmh SE 8.3 mph13.4 kmh 29.91 in1012.9 mb 0.00 in0.0 mm 0.00 in0.0 mm 0.00 in0.0 mm
06:15 PM 81.5°F27.5°C 62.8°F17.1°C 53% 2.2 mph SE3.5 kmh SE 4.5 mph7.2 kmh 29.91 in1012.9 mb 0.00 in0.0 mm 0.00 in0.0 mm 0.00 in0.0 mm
06:00 PM 79.5°F26.4°C 62.0°F16.7°C 55% 3.7 mph SE6.0 kmh SE 5.4 mph8.7 kmh 29.92 in1013.2 mb 0.00 in0.0 mm 0.00 in0.0 mm 0.00 in0.0 mm
05:52 PM 79.0°F26.1°C 62.4°F16.9°C 57% 3.6 mph SE5.8 kmh SE 3.8 mph6.1 kmh 29.92 in1013.2 mb 0.00 in0.0 mm 0.00 in0.0 mm 0.00 in0.0 mm
05:47 PM 79.0°F26.1°C 61.4°F16.3°C 55% 3.8 mph SE6.1 kmh SE 4.5 mph7.2 kmh 29.92 in1013.2 mb 0.00 in0.0 mm 0.00 in0.0 mm 0.00 in0.0 mm
05:42 PM 79.2°F26.2°C 60.6°F15.9°C 53% 5.3 mph SE8.5 kmh SE 7.6 mph12.2 kmh 29.92 in1013.2 mb 0.00 in0.0 mm 0.00 in0.0 mm 0.00 in0.0 mm
05:37 PM 79.2°F26.2°C 59.5°F15.3°C 51% 5.5 mph SE8.9 kmh SE 7.6 mph12.2 kmh 29.92 in1013.2 mb 0.00 in0.0 mm 0.00 in0.0 mm 0.00 in0.0 mm
05:32 PM 79.0°F26.1°C 60.9°F16.1°C 54% 6.0 mph SE9.7 kmh SE 7.6 mph12.2 kmh 29.92 in1013.2 mb 0.00 in0.0 mm 0.00 in0.0 mm 0.00 in0.0 mm
05:27 PM 79.2°F26.2°C 63.6°F17.6°C 59% 5.3 mph SE8.5 kmh SE 6.0 mph9.7 kmh 29.93 in1013.5 mb 0.00 in0.0 mm 0.00 in0.0 mm 0.00 in0.0 mm
05:22 PM 79.2°F26.2°C 63.6°F17.6°C 59% 4.8 mph SE7.7 kmh SE 6.0 mph9.7 kmh 29.93 in1013.5 mb 0.00 in0.0 mm 0.00 in0.0 mm 0.00 in0.0 mm
05:17 PM 79.2°F26.2°C 64.1°F17.8°C 60% 4.1 mph SE6.6 kmh SE 5.4 mph8.7 kmh 29.93 in1013.5 mb 0.00 in0.0 mm 0.00 in0.0 mm 0.00 in0.0 mm
05:12 PM 79.0°F26.1°C 62.9°F17.2°C 58% 4.8 mph SE7.7 kmh SE 7.6 mph12.2 kmh 29.93 in1013.5 mb 0.00 in0.0 mm 0.00 in0.0 mm 0.00 in0.0 mm
05:07 PM 78.8°F26.0°C 62.8°F17.1°C 58% 5.6 mph SE9.0 kmh SE 7.6 mph12.2 kmh 29.92 in1013.2 mb 0.00 in0.0 mm 0.00 in0.0 mm 0.00 in0.0 mm
05:02 PM 78.4°F25.8°C 63.4°F17.4°C 60% 6.3 mph SE10.1 kmh SE 7.6 mph12.2 kmh 29.93 in1013.5 mb 0.00 in0.0 mm 0.00 in0.0 mm 0.00 in0.0 mm
04:57 PM 78.3°F25.7°C 62.8°F17.1°C 59% 6.9 mph S11.1 kmh S 9.2 mph14.8 kmh 29.93 in1013.5 mb 0.00 in0.0 mm 0.00 in0.0 mm 0.00 in0.0 mm
04:52 PM 78.8°F26.0°C 62.8°F17.1°C 58% 8.1 mph S13.0 kmh S 9.2 mph14.8 kmh 29.93 in1013.5 mb 0.00 in0.0 mm 0.00 in0.0 mm 0.00 in0.0 mm
04:47 PM 79.5°F26.4°C 61.4°F16.3°C 54% 8.1 mph S13.0 kmh S 9.2 mph14.8 kmh 29.93 in1013.5 mb 0.00 in0.0 mm 0.00 in0.0 mm 0.00 in0.0 mm
04:42 PM 80.2°F26.8°C 60.5°F15.8°C 51% 6.1 mph SSE9.8 kmh SSE 9.2 mph14.8 kmh 29.93 in1013.5 mb 0.00 in0.0 mm 0.00 in0.0 mm 0.00 in0.0 mm
04:37 PM 80.4°F26.9°C 61.2°F16.2°C 52% 4.8 mph S7.7 kmh S 6.0 mph9.7 kmh 29.93 in1013.5 mb 0.00 in0.0 mm 0.00 in0.0 mm 0.00 in0.0 mm
04:32 PM 80.6°F27.0°C 61.9°F16.6°C 53% 5.9 mph ESE9.5 kmh ESE 9.2 mph14.8 kmh 29.93 in1013.5 mb 0.00 in0.0 mm 0.00 in0.0 mm 0.00 in0.0 mm
04:27 PM 81.3°F27.4°C 60.9°F16.1°C 50% 7.2 mph SE11.6 kmh SE 9.2 mph14.8 kmh 29.93 in1013.5 mb 0.00 in0.0 mm 0.00 in0.0 mm 0.00 in0.0 mm
04:22 PM 82.4°F28.0°C 61.3°F16.3°C 49% 9.2 mph SE14.8 kmh SE 11.4 mph18.3 kmh 29.94 in1013.9 mb 0.00 in0.0 mm 0.00 in0.0 mm 0.00 in0.0 mm
04:17 PM 83.7°F28.7°C 59.4°F15.2°C 44% 8.6 mph SSE13.8 kmh SSE 11.4 mph18.3 kmh 29.94 in1013.9 mb 0.00 in0.0 mm 0.00 in0.0 mm 0.00 in0.0 mm
04:12 PM 84.0°F28.9°C 59.8°F15.4°C 44% 8.1 mph SSE13.0 kmh SSE 11.4 mph18.3 kmh 29.94 in1013.9 mb 0.00 in0.0 mm 0.00 in0.0 mm 0.00 in0.0 mm
04:07 PM 84.7°F29.3°C 61.7°F16.5°C 46% 6.3 mph S10.1 kmh S 7.6 mph12.2 kmh 29.93 in1013.5 mb 0.00 in0.0 mm 0.00 in0.0 mm 0.00 in0.0 mm
04:02 PM 84.9°F29.4°C 61.8°F16.6°C 46% 5.8 mph S9.3 kmh S 6.0 mph9.7 kmh 29.93 in1013.5 mb 0.00 in0.0 mm 0.00 in0.0 mm 0.00 in0.0 mm
03:57 PM 85.3°F29.6°C 61.5°F16.4°C 45% 5.8 mph S9.3 kmh S 6.0 mph9.7 kmh 29.93 in1013.5 mb 0.00 in0.0 mm 0.00 in0.0 mm 0.00 in0.0 mm
03:52 PM 85.6°F29.8°C 61.2°F16.2°C 44% 6.1 mph S9.8 kmh S 6.9 mph11.1 kmh 29.93 in1013.5 mb 0.00 in0.0 mm 0.00 in0.0 mm 0.00 in0.0 mm
03:47 PM 85.8°F29.9°C 63.3°F17.4°C 47% 7.2 mph SSE11.6 kmh SSE 9.2 mph14.8 kmh 29.93 in1013.5 mb 0.00 in0.0 mm 0.00 in0.0 mm 0.00 in0.0 mm
03:42 PM 86.0°F30.0°C 62.2°F16.8°C 45% 7.2 mph SE11.6 kmh SE 9.2 mph14.8 kmh 29.93 in1013.5 mb 0.00 in0.0 mm 0.00 in0.0 mm 0.00 in0.0 mm
03:37 PM 86.9°F30.5°C 63.0°F17.2°C 45% 8.1 mph SSE13.0 kmh SSE 9.8 mph15.8 kmh 29.93 in1013.5 mb 0.00 in0.0 mm 0.00 in0.0 mm 0.00 in0.0 mm
03:32 PM 86.0°F30.0°C 61.5°F16.4°C 44% 8.1 mph SSE13.0 kmh SSE 9.8 mph15.8 kmh 29.93 in1013.5 mb 0.00 in0.0 mm 0.00 in0.0 mm 0.00 in0.0 mm
03:27 PM 85.8°F29.9°C 62.0°F16.7°C 45% 9.1 mph S14.6 kmh S 9.8 mph15.8 kmh 29.93 in1013.5 mb 0.00 in0.0 mm 0.00 in0.0 mm 0.00 in0.0 mm
03:22 PM 86.2°F30.1°C 64.2°F17.9°C 48% 8.4 mph SE13.5 kmh SE 9.2 mph14.8 kmh 29.93 in1013.5 mb 0.00 in0.0 mm 0.00 in0.0 mm 0.00 in0.0 mm
03:17 PM 86.0°F30.0°C 64.0°F17.8°C 48% 7.1 mph SE11.4 kmh SE 8.3 mph13.4 kmh 29.93 in1013.5 mb 0.00 in0.0 mm 0.00 in0.0 mm 0.00 in0.0 mm
03:12 PM 86.4°F30.2°C 63.8°F17.7°C 47% 8.4 mph SE13.5 kmh SE 12.1 mph19.5 kmh 29.93 in1013.5 mb 0.00 in0.0 mm 0.00 in0.0 mm 0.00 in0.0 mm
03:07 PM 85.5°F29.7°C 64.7°F18.2°C 50% 8.1 mph SE13.0 kmh SE 12.1 mph19.5 kmh 29.94 in1013.9 mb 0.00 in0.0 mm 0.00 in0.0 mm 0.00 in0.0 mm
03:02 PM 85.8°F29.9°C 65.6°F18.7°C 51% 7.6 mph ESE12.2 kmh ESE 12.1 mph19.5 kmh 29.94 in1013.9 mb 0.00 in0.0 mm 0.00 in0.0 mm 0.00 in0.0 mm
02:57 PM 85.6°F29.8°C 66.0°F18.9°C 52% 5.6 mph E9.0 kmh E 6.9 mph11.1 kmh 29.94 in1013.9 mb 0.00 in0.0 mm 0.00 in0.0 mm 0.00 in0.0 mm
02:52 PM 84.7°F29.3°C 65.7°F18.7°C 53% 4.8 mph E7.7 kmh E 6.0 mph9.7 kmh 29.94 in1013.9 mb 0.00 in0.0 mm 0.00 in0.0 mm 0.00 in0.0 mm
02:47 PM 84.0°F28.9°C 65.6°F18.7°C 54% 4.5 mph E7.2 kmh E 6.0 mph9.7 kmh 29.94 in1013.9 mb 0.00 in0.0 mm 0.00 in0.0 mm 0.00 in0.0 mm
02:42 PM 84.0°F28.9°C 65.6°F18.7°C 54% 4.5 mph E7.2 kmh E 6.0 mph9.7 kmh 29.94 in1013.9 mb 0.00 in0.0 mm 0.00 in0.0 mm 0.00 in0.0 mm
02:37 PM 84.0°F28.9°C 65.0°F18.3°C 53% 4.1 mph E6.6 kmh E 6.0 mph9.7 kmh 29.94 in1013.9 mb 0.00 in0.0 mm 0.00 in0.0 mm 0.00 in0.0 mm
02:32 PM 84.0°F28.9°C 65.0°F18.3°C 53% 4.5 mph E7.2 kmh E 6.0 mph9.7 kmh 29.94 in1013.9 mb 0.00 in0.0 mm 0.00 in0.0 mm 0.00 in0.0 mm
02:27 PM 83.8°F28.8°C 64.9°F18.3°C 53% 3.6 mph E5.8 kmh E 4.5 mph7.2 kmh 29.95 in1014.2 mb 0.00 in0.0 mm 0.00 in0.0 mm 0.00 in0.0 mm
02:22 PM 83.5°F28.6°C 64.5°F18.1°C 53% 4.0 mph E6.4 kmh E 4.5 mph7.2 kmh 29.95 in1014.2 mb 0.00 in0.0 mm 0.00 in0.0 mm 0.00 in0.0 mm
02:17 PM 83.3°F28.5°C 63.8°F17.7°C 52% 3.6 mph E5.8 kmh E 4.5 mph7.2 kmh 29.95 in1014.2 mb 0.00 in0.0 mm 0.00 in0.0 mm 0.00 in0.0 mm
02:12 PM 83.5°F28.6°C 63.4°F17.4°C 51% 3.6 mph E5.8 kmh E 4.5 mph7.2 kmh 29.95 in1014.2 mb 0.00 in0.0 mm 0.00 in0.0 mm 0.00 in0.0 mm
02:07 PM 83.5°F28.6°C 63.4°F17.4°C 51% 4.1 mph E6.6 kmh E 6.0 mph9.7 kmh 29.96 in1014.6 mb 0.00 in0.0 mm 0.00 in0.0 mm 0.00 in0.0 mm
02:02 PM 83.1°F28.4°C 63.1°F17.3°C 51% 5.4 mph E8.7 kmh E 6.9 mph11.1 kmh 29.96 in1014.6 mb 0.00 in0.0 mm 0.00 in0.0 mm 0.00 in0.0 mm
01:57 PM 82.8°F28.2°C 62.2°F16.8°C 50% 5.8 mph E9.3 kmh E 6.9 mph11.1 kmh 29.97 in1014.9 mb 0.00 in0.0 mm 0.00 in0.0 mm 0.00 in0.0 mm
01:52 PM 83.1°F28.4°C 62.6°F17.0°C 50% 5.8 mph E9.3 kmh E 6.9 mph11.1 kmh 29.97 in1014.9 mb 0.00 in0.0 mm 0.00 in0.0 mm 0.00 in0.0 mm
01:47 PM 82.9°F28.3°C 62.4°F16.9°C 50% 5.8 mph E9.3 kmh E 6.9 mph11.1 kmh 29.97 in1014.9 mb 0.00 in0.0 mm 0.00 in0.0 mm 0.00 in0.0 mm
01:42 PM 83.1°F28.4°C 61.4°F16.3°C 48% 6.1 mph E9.8 kmh E 6.9 mph11.1 kmh 29.97 in1014.9 mb 0.00 in0.0 mm 0.00 in0.0 mm 0.00 in0.0 mm
01:37 PM 83.8°F28.8°C 62.1°F16.7°C 48% 7.4 mph E11.9 kmh E 9.8 mph15.8 kmh 29.98 in1015.2 mb 0.00 in0.0 mm 0.00 in0.0 mm 0.00 in0.0 mm
01:32 PM 83.5°F28.6°C 61.7°F16.5°C 48% 6.6 mph E10.6 kmh E 9.8 mph15.8 kmh 29.98 in1015.2 mb 0.00 in0.0 mm 0.00 in0.0 mm 0.00 in0.0 mm
01:27 PM 83.8°F28.8°C 60.8°F16.0°C 46% 8.1 mph E13.0 kmh E 9.8 mph15.8 kmh 29.98 in1015.2 mb 0.00 in0.0 mm 0.00 in0.0 mm 0.00 in0.0 mm
01:22 PM 84.0°F28.9°C 60.4°F15.8°C 45% 7.1 mph E11.4 kmh E 9.8 mph15.8 kmh 29.98 in1015.2 mb 0.00 in0.0 mm 0.00 in0.0 mm 0.00 in0.0 mm
01:17 PM 84.0°F28.9°C 60.4°F15.8°C 45% 8.4 mph E13.5 kmh E 9.8 mph15.8 kmh 29.98 in1015.2 mb 0.00 in0.0 mm 0.00 in0.0 mm 0.00 in0.0 mm
01:12 PM 83.3°F28.5°C 61.6°F16.4°C 48% 6.9 mph SE11.1 kmh SE 8.3 mph13.4 kmh 29.99 in1015.6 mb 0.00 in0.0 mm 0.00 in0.0 mm 0.00 in0.0 mm
01:07 PM 81.9°F27.7°C 60.2°F15.7°C 48% 6.3 mph SE10.1 kmh SE 8.3 mph13.4 kmh 29.99 in1015.6 mb 0.00 in0.0 mm 0.00 in0.0 mm 0.00 in0.0 mm
01:02 PM 81.1°F27.3°C 60.2°F15.7°C 49% 6.9 mph SE11.1 kmh SE 9.8 mph15.8 kmh 30.00 in1015.9 mb 0.00 in0.0 mm 0.00 in0.0 mm 0.00 in0.0 mm
12:57 PM 80.6°F27.0°C 59.7°F15.4°C 49% 7.1 mph SSE11.4 kmh SSE 9.8 mph15.8 kmh 30.00 in1015.9 mb 0.00 in0.0 mm 0.00 in0.0 mm 0.00 in0.0 mm
12:52 PM 81.1°F27.3°C 60.2°F15.7°C 49% 8.1 mph SSE13.0 kmh SSE 9.8 mph15.8 kmh 30.00 in1015.9 mb 0.00 in0.0 mm 0.00 in0.0 mm 0.00 in0.0 mm
12:47 PM 81.1°F27.3°C 59.0°F15.0°C 47% 7.5 mph SE12.1 kmh SE 8.3 mph13.4 kmh 30.00 in1015.9 mb 0.00 in0.0 mm 0.00 in0.0 mm 0.00 in0.0 mm
12:42 PM 81.0°F27.2°C 57.0°F13.9°C 44% 7.8 mph SE12.6 kmh SE 8.3 mph13.4 kmh 30.00 in1015.9 mb 0.00 in0.0 mm 0.00 in0.0 mm 0.00 in0.0 mm
12:37 PM 81.0°F27.2°C 57.6°F14.2°C 45% 6.1 mph SE9.8 kmh SE 8.3 mph13.4 kmh 30.02 in1016.6 mb 0.00 in0.0 mm 0.00 in0.0 mm 0.00 in0.0 mm
12:32 PM 81.0°F27.2°C 57.6°F14.2°C 45% 7.2 mph SE11.6 kmh SE 11.4 mph18.3 kmh 30.01 in1016.3 mb 0.00 in0.0 mm 0.00 in0.0 mm 0.00 in0.0 mm
12:27 PM 80.8°F27.1°C 56.8°F13.8°C 44% 7.2 mph SE11.6 kmh SE 11.4 mph18.3 kmh 30.02 in1016.6 mb 0.00 in0.0 mm 0.00 in0.0 mm 0.00 in0.0 mm
12:22 PM 81.3°F27.4°C 57.3°F14.1°C 44% 8.6 mph SE13.8 kmh SE 11.4 mph18.3 kmh 30.02 in1016.6 mb 0.00 in0.0 mm 0.00 in0.0 mm 0.00 in0.0 mm
12:17 PM 81.9°F27.7°C 57.8°F14.3°C 44% 6.1 mph SE9.8 kmh SE 7.6 mph12.2 kmh 30.02 in1016.6 mb 0.00 in0.0 mm 0.00 in0.0 mm 0.00 in0.0 mm
12:12 PM 83.1°F28.4°C 58.3°F14.6°C 43% 4.5 mph SE7.2 kmh SE 7.6 mph12.2 kmh 30.01 in1016.3 mb 0.00 in0.0 mm 0.00 in0.0 mm 0.00 in0.0 mm
12:07 PM 82.9°F28.3°C 59.4°F15.2°C 45% 3.1 mph SE5.0 kmh SE 3.8 mph6.1 kmh 30.02 in1016.6 mb 0.00 in0.0 mm 0.00 in0.0 mm 0.00 in0.0 mm
12:02 PM 82.2°F27.9°C 58.8°F14.9°C 45% 2.8 mph SE4.5 kmh SE 3.1 mph5.0 kmh 30.02 in1016.6 mb 0.00 in0.0 mm 0.00 in0.0 mm 0.00 in0.0 mm
11:57 AM 81.9°F27.7°C 59.1°F15.1°C 46% 3.5 mph SE5.6 kmh SE 4.3 mph6.9 kmh 30.02 in1016.6 mb 0.00 in0.0 mm 0.00 in0.0 mm 0.00 in0.0 mm
11:52 AM 81.3°F27.4°C 59.2°F15.1°C 47% 4.6 mph SE7.4 kmh SE 6.2 mph10.0 kmh 30.02 in1016.6 mb 0.00 in0.0 mm 0.00 in0.0 mm 0.00 in0.0 mm
11:45 AM 81.1°F27.3°C 59.0°F15.0°C 47% 5.6 mph ESE9.0 kmh ESE 6.9 mph11.1 kmh 30.02 in1016.6 mb 0.00 in0.0 mm 0.00 in0.0 mm 0.00 in0.0 mm
11:30 AM 81.3°F27.4°C 59.8°F15.4°C 48% 5.9 mph ESE9.5 kmh ESE 9.2 mph14.8 kmh 30.03 in1016.9 mb 0.00 in0.0 mm 0.00 in0.0 mm 0.00 in0.0 mm
11:15 AM 82.4°F28.0°C 60.2°F15.7°C 47% 4.7 mph SE7.6 kmh SE 7.6 mph12.2 kmh 30.02 in1016.6 mb 0.00 in0.0 mm 0.00 in0.0 mm 0.00 in0.0 mm
11:02 AM 81.9°F27.7°C 59.7°F15.4°C 47% 6.3 mph ESE10.1 kmh ESE 7.6 mph12.2 kmh 30.03 in1016.9 mb 0.00 in0.0 mm 0.00 in0.0 mm 0.00 in0.0 mm
10:57 AM 82.0°F27.8°C 59.2°F15.1°C 46% 4.5 mph E7.2 kmh E 6.0 mph9.7 kmh 30.03 in1016.9 mb 0.00 in0.0 mm 0.00 in0.0 mm 0.00 in0.0 mm
10:52 AM 82.8°F28.2°C 59.9°F15.5°C 46% 3.3 mph E5.3 kmh E 5.4 mph8.7 kmh 30.03 in1016.9 mb 0.00 in0.0 mm 0.00 in0.0 mm 0.00 in0.0 mm
10:47 AM 82.6°F28.1°C 59.7°F15.4°C 46% 2.5 mph E4.0 kmh E 3.1 mph5.0 kmh 30.03 in1016.9 mb 0.00 in0.0 mm 0.00 in0.0 mm 0.00 in0.0 mm
10:42 AM 81.9°F27.7°C 59.1°F15.1°C 46% 2.5 mph E4.0 kmh E 3.1 mph5.0 kmh 30.03 in1016.9 mb 0.00 in0.0 mm 0.00 in0.0 mm 0.00 in0.0 mm
10:37 AM 82.0°F27.8°C 59.2°F15.1°C 46% 2.5 mph E4.0 kmh E 3.1 mph5.0 kmh 30.03 in1016.9 mb 0.00 in0.0 mm 0.00 in0.0 mm 0.00 in0.0 mm
10:32 AM 82.2°F27.9°C 60.6°F15.9°C 48% 2.8 mph E4.5 kmh E 3.8 mph6.1 kmh 30.03 in1016.9 mb 0.00 in0.0 mm 0.00 in0.0 mm 0.00 in0.0 mm
10:27 AM 82.2°F27.9°C 60.6°F15.9°C 48% 3.3 mph E5.3 kmh E 3.8 mph6.1 kmh 30.03 in1016.9 mb 0.00 in0.0 mm 0.00 in0.0 mm 0.00 in0.0 mm
10:22 AM 82.8°F28.2°C 60.5°F15.8°C 47% 3.8 mph E6.1 kmh E 3.8 mph6.1 kmh 30.02 in1016.6 mb 0.00 in0.0 mm 0.00 in0.0 mm 0.00 in0.0 mm
10:17 AM 83.1°F28.4°C 60.2°F15.7°C 46% 3.6 mph E5.8 kmh E 3.8 mph6.1 kmh 30.02 in1016.6 mb 0.00 in0.0 mm 0.00 in0.0 mm 0.00 in0.0 mm
10:12 AM 82.2°F27.9°C 60.6°F15.9°C 48% 3.1 mph E5.0 kmh E 3.8 mph6.1 kmh 30.03 in1016.9 mb 0.00 in0.0 mm 0.00 in0.0 mm 0.00 in0.0 mm
10:07 AM 81.3°F27.4°C 60.3°F15.7°C 49% 2.8 mph E4.5 kmh E 3.1 mph5.0 kmh 30.03 in1016.9 mb 0.00 in0.0 mm 0.00 in0.0 mm 0.00 in0.0 mm
10:02 AM 81.7°F27.6°C 59.5°F15.3°C 47% 2.0 mph E3.2 kmh E 3.1 mph5.0 kmh 30.03 in1016.9 mb 0.00 in0.0 mm 0.00 in0.0 mm 0.00 in0.0 mm
09:57 AM 82.0°F27.8°C 59.2°F15.1°C 46% 1.8 mph E2.9 kmh E 3.1 mph5.0 kmh 30.03 in1016.9 mb 0.00 in0.0 mm 0.00 in0.0 mm 0.00 in0.0 mm
09:52 AM 82.0°F27.8°C 59.2°F15.1°C 46% 1.8 mph E2.9 kmh E 3.1 mph5.0 kmh 30.03 in1016.9 mb 0.00 in0.0 mm 0.00 in0.0 mm 0.00 in0.0 mm
09:47 AM 82.2°F27.9°C 59.4°F15.2°C 46% 2.3 mph E3.7 kmh E 3.1 mph5.0 kmh 30.03 in1016.9 mb 0.00 in0.0 mm 0.00 in0.0 mm 0.00 in0.0 mm
09:42 AM 82.6°F28.1°C 59.7°F15.4°C 46% 3.1 mph E5.0 kmh E 3.8 mph6.1 kmh 30.03 in1016.9 mb 0.00 in0.0 mm 0.00 in0.0 mm 0.00 in0.0 mm
09:37 AM 82.4°F28.0°C 58.9°F14.9°C 45% 3.3 mph E5.3 kmh E 3.8 mph6.1 kmh 30.03 in1016.9 mb 0.00 in0.0 mm 0.00 in0.0 mm 0.00 in0.0 mm
09:32 AM 82.9°F28.3°C 59.4°F15.2°C 45% 4.0 mph E6.4 kmh E 4.5 mph7.2 kmh 30.03 in1016.9 mb 0.00 in0.0 mm 0.00 in0.0 mm 0.00 in0.0 mm
09:27 AM 82.4°F28.0°C 58.3°F14.6°C 44% 4.0 mph ESE6.4 kmh ESE 4.5 mph7.2 kmh 30.03 in1016.9 mb 0.00 in0.0 mm 0.00 in0.0 mm 0.00 in0.0 mm
09:22 AM 82.8°F28.2°C 58.0°F14.4°C 43% 4.3 mph SE6.9 kmh SE 4.5 mph7.2 kmh 30.03 in1016.9 mb 0.00 in0.0 mm 0.00 in0.0 mm 0.00 in0.0 mm
09:17 AM 82.8°F28.2°C 58.6°F14.8°C 44% 4.0 mph S6.4 kmh S 4.5 mph7.2 kmh 30.03 in1016.9 mb 0.00 in0.0 mm 0.00 in0.0 mm 0.00 in0.0 mm
09:12 AM 82.0°F27.8°C 57.3°F14.1°C 43% 3.8 mph S6.1 kmh S 4.5 mph7.2 kmh 30.03 in1016.9 mb 0.00 in0.0 mm 0.00 in0.0 mm 0.00 in0.0 mm
09:07 AM 80.2°F26.8°C 58.2°F14.6°C 47% 3.4 mph S5.5 kmh S 3.8 mph6.1 kmh 30.04 in1017.3 mb 0.00 in0.0 mm 0.00 in0.0 mm 0.00 in0.0 mm
09:02 AM 80.1°F26.7°C 58.0°F14.4°C 47% 3.1 mph S5.0 kmh S 3.1 mph5.0 kmh 30.04 in1017.3 mb 0.00 in0.0 mm 0.00 in0.0 mm 0.00 in0.0 mm
08:57 AM 79.5°F26.4°C 56.9°F13.8°C 46% 2.8 mph S4.5 kmh S 3.1 mph5.0 kmh 30.03 in1016.9 mb 0.00 in0.0 mm 0.00 in0.0 mm 0.00 in0.0 mm
08:52 AM 79.9°F26.6°C 57.3°F14.1°C 46% 2.3 mph S3.7 kmh S 3.1 mph5.0 kmh 30.03 in1016.9 mb 0.00 in0.0 mm 0.00 in0.0 mm 0.00 in0.0 mm
08:47 AM 80.8°F27.1°C 56.8°F13.8°C 44% 2.3 mph S3.7 kmh S 3.1 mph5.0 kmh 30.04 in1017.3 mb 0.00 in0.0 mm 0.00 in0.0 mm 0.00 in0.0 mm
08:42 AM 80.2°F26.8°C 56.3°F13.5°C 44% 2.6 mph S4.2 kmh S 3.1 mph5.0 kmh 30.04 in1017.3 mb 0.00 in0.0 mm 0.00 in0.0 mm 0.00 in0.0 mm
08:37 AM 79.7°F26.5°C 55.9°F13.3°C 44% 2.3 mph S3.7 kmh S 3.1 mph5.0 kmh 30.04 in1017.3 mb 0.00 in0.0 mm 0.00 in0.0 mm 0.00 in0.0 mm
08:32 AM 78.8°F26.0°C 55.7°F13.2°C 45% 2.3 mph S3.7 kmh S 3.1 mph5.0 kmh 30.04 in1017.3 mb 0.00 in0.0 mm 0.00 in0.0 mm 0.00 in0.0 mm
08:27 AM 78.4°F25.8°C 55.9°F13.3°C 46% 2.3 mph S3.7 kmh S 3.1 mph5.0 kmh 30.04 in1017.3 mb 0.00 in0.0 mm 0.00 in0.0 mm 0.00 in0.0 mm
08:22 AM 78.8°F26.0°C 57.4°F14.1°C 48% 3.1 mph S5.0 kmh S 3.1 mph5.0 kmh 30.04 in1017.3 mb 0.00 in0.0 mm 0.00 in0.0 mm 0.00 in0.0 mm
08:17 AM 78.6°F25.9°C 59.0°F15.0°C 51% 3.4 mph S5.5 kmh S 3.8 mph6.1 kmh 30.04 in1017.3 mb 0.00 in0.0 mm 0.00 in0.0 mm 0.00 in0.0 mm
08:12 AM 77.2°F25.1°C 59.8°F15.4°C 55% 3.4 mph S5.5 kmh S 3.8 mph6.1 kmh 30.04 in1017.3 mb 0.00 in0.0 mm 0.00 in0.0 mm 0.00 in0.0 mm
08:07 AM 76.5°F24.7°C 59.1°F15.1°C 55% 3.4 mph S5.5 kmh S 3.8 mph6.1 kmh 30.05 in1017.6 mb 0.00 in0.0 mm 0.00 in0.0 mm 0.00 in0.0 mm
08:02 AM 76.1°F24.5°C 58.2°F14.6°C 54% 2.6 mph S4.2 kmh S 3.1 mph5.0 kmh 30.05 in1017.6 mb 0.00 in0.0 mm 0.00 in0.0 mm 0.00 in0.0 mm
07:57 AM 76.8°F24.9°C 58.9°F14.9°C 54% 2.3 mph S3.7 kmh S 3.1 mph5.0 kmh 30.05 in1017.6 mb 0.00 in0.0 mm 0.00 in0.0 mm 0.00 in0.0 mm
07:52 AM 75.9°F24.4°C 60.1°F15.6°C 58% 1.8 mph S2.9 kmh S 2.2 mph3.5 kmh 30.06 in1017.9 mb 0.00 in0.0 mm 0.00 in0.0 mm 0.00 in0.0 mm
07:47 AM 75.0°F23.9°C 60.2°F15.7°C 60% 2.0 mph S3.2 kmh S 2.2 mph3.5 kmh 30.06 in1017.9 mb 0.00 in0.0 mm 0.00 in0.0 mm 0.00 in0.0 mm
07:42 AM 74.5°F23.6°C 60.6°F15.9°C 62% 2.5 mph S4.0 kmh S 3.8 mph6.1 kmh 30.05 in1017.6 mb 0.00 in0.0 mm 0.00 in0.0 mm 0.00 in0.0 mm
07:37 AM 73.9°F23.3°C 59.6°F15.3°C 61% 2.8 mph S4.5 kmh S 3.8 mph6.1 kmh 30.05 in1017.6 mb 0.00 in0.0 mm 0.00 in0.0 mm 0.00 in0.0 mm
07:32 AM 74.5°F23.6°C 58.2°F14.6°C 57% 2.8 mph S4.5 kmh S 3.8 mph6.1 kmh 30.05 in1017.6 mb 0.00 in0.0 mm 0.00 in0.0 mm 0.00 in0.0 mm
07:27 AM 75.0°F23.9°C 59.2°F15.1°C 58% 2.5 mph S4.0 kmh S 3.1 mph5.0 kmh 30.05 in1017.6 mb 0.00 in0.0 mm 0.00 in0.0 mm 0.00 in0.0 mm
07:22 AM 74.7°F23.7°C 58.4°F14.7°C 57% 2.3 mph S3.7 kmh S 3.1 mph5.0 kmh 30.05 in1017.6 mb 0.00 in0.0 mm 0.00 in0.0 mm 0.00 in0.0 mm
07:17 AM 75.7°F24.3°C 57.4°F14.1°C 53% 2.3 mph S3.7 kmh S 3.1 mph5.0 kmh 30.05 in1017.6 mb 0.00 in0.0 mm 0.00 in0.0 mm 0.00 in0.0 mm
07:12 AM 76.8°F24.9°C 59.9°F15.5°C 56% 1.8 mph S2.9 kmh S 2.2 mph3.5 kmh 30.05 in1017.6 mb 0.00 in0.0 mm 0.00 in0.0 mm 0.00 in0.0 mm
07:07 AM 77.5°F25.3°C 60.6°F15.9°C 56% 2.0 mph S3.2 kmh S 2.2 mph3.5 kmh 30.05 in1017.6 mb 0.00 in0.0 mm 0.00 in0.0 mm 0.00 in0.0 mm
07:02 AM 76.3°F24.6°C 61.8°F16.6°C 61% 1.8 mph S2.9 kmh S 2.2 mph3.5 kmh 30.05 in1017.6 mb 0.00 in0.0 mm 0.00 in0.0 mm 0.00 in0.0 mm
06:57 AM 75.0°F23.9°C 60.7°F15.9°C 61% 1.3 mph S2.1 kmh S 2.2 mph3.5 kmh 30.05 in1017.6 mb 0.00 in0.0 mm 0.00 in0.0 mm 0.00 in0.0 mm
06:52 AM 74.7°F23.7°C 62.1°F16.7°C 65% 0.7 mph S1.1 kmh S 1.6 mph2.6 kmh 30.05 in1017.6 mb 0.00 in0.0 mm 0.00 in0.0 mm 0.00 in0.0 mm
06:47 AM 72.3°F22.4°C 62.0°F16.7°C 70% 1.3 mph S2.1 kmh S 3.1 mph5.0 kmh 30.05 in1017.6 mb 0.00 in0.0 mm 0.00 in0.0 mm 0.00 in0.0 mm
06:42 AM 70.3°F21.3°C 60.9°F16.1°C 72% 2.3 mph S3.7 kmh S 3.1 mph5.0 kmh 30.04 in1017.3 mb 0.00 in0.0 mm 0.00 in0.0 mm 0.00 in0.0 mm
06:37 AM 69.6°F20.9°C 60.2°F15.7°C 72% 2.3 mph S3.7 kmh S 3.1 mph5.0 kmh 30.04 in1017.3 mb 0.00 in0.0 mm 0.00 in0.0 mm 0.00 in0.0 mm
06:32 AM 69.6°F20.9°C 59.4°F15.2°C 70% 1.8 mph S2.9 kmh S 3.1 mph5.0 kmh 30.04 in1017.3 mb 0.00 in0.0 mm 0.00 in0.0 mm 0.00 in0.0 mm
06:27 AM 69.8°F21.0°C 59.6°F15.3°C 70% 1.3 mph S2.1 kmh S 1.6 mph2.6 kmh 30.04 in1017.3 mb 0.00 in0.0 mm 0.00 in0.0 mm 0.00 in0.0 mm
06:22 AM 69.8°F21.0°C 59.2°F15.1°C 69% 1.3 mph S2.1 kmh S 1.6 mph2.6 kmh 30.04 in1017.3 mb 0.00 in0.0 mm 0.00 in0.0 mm 0.00 in0.0 mm
06:17 AM 69.8°F21.0°C 59.6°F15.3°C 70% 1.8 mph S2.9 kmh S 3.1 mph5.0 kmh 30.04 in1017.3 mb 0.00 in0.0 mm 0.00 in0.0 mm 0.00 in0.0 mm
06:12 AM 69.3°F20.7°C 58.7°F14.8°C 69% 2.3 mph S3.7 kmh S 3.1 mph5.0 kmh 30.04 in1017.3 mb 0.00 in0.0 mm 0.00 in0.0 mm 0.00 in0.0 mm
06:07 AM 68.9°F20.5°C 58.3°F14.6°C 69% 2.8 mph S4.5 kmh S 3.1 mph5.0 kmh 30.04 in1017.3 mb 0.00 in0.0 mm 0.00 in0.0 mm 0.00 in0.0 mm
06:02 AM 68.2°F20.1°C 58.4°F14.7°C 71% 3.1 mph S5.0 kmh S 3.8 mph6.1 kmh 30.04 in1017.3 mb 0.00 in0.0 mm 0.00 in0.0 mm 0.00 in0.0 mm
05:57 AM 67.3°F19.6°C 58.7°F14.8°C 74% 3.3 mph S5.3 kmh S 3.8 mph6.1 kmh 30.04 in1017.3 mb 0.00 in0.0 mm 0.00 in0.0 mm 0.00 in0.0 mm
05:52 AM 66.6°F19.2°C 58.0°F14.4°C 74% 3.6 mph S5.8 kmh S 3.8 mph6.1 kmh 30.04 in1017.3 mb 0.00 in0.0 mm 0.00 in0.0 mm 0.00 in0.0 mm
05:47 AM 66.0°F18.9°C 57.9°F14.4°C 75% 3.4 mph S5.5 kmh S 3.8 mph6.1 kmh 30.04 in1017.3 mb 0.00 in0.0 mm 0.00 in0.0 mm 0.00 in0.0 mm
05:42 AM 66.0°F18.9°C 58.6°F14.8°C 77% 2.1 mph S3.4 kmh S 3.1 mph5.0 kmh 30.04 in1017.3 mb 0.00 in0.0 mm 0.00 in0.0 mm 0.00 in0.0 mm
05:37 AM 66.0°F18.9°C 60.7°F15.9°C 83% 1.8 mph S2.9 kmh S 3.1 mph5.0 kmh 30.04 in1017.3 mb 0.00 in0.0 mm 0.00 in0.0 mm 0.00 in0.0 mm
05:32 AM 65.5°F18.6°C 61.2°F16.2°C 86% 1.8 mph S2.9 kmh S 3.1 mph5.0 kmh 30.04 in1017.3 mb 0.00 in0.0 mm 0.00 in0.0 mm 0.00 in0.0 mm
05:27 AM 64.6°F18.1°C 60.3°F15.7°C 86% 2.3 mph S3.7 kmh S 3.1 mph5.0 kmh 30.04 in1017.3 mb 0.00 in0.0 mm 0.00 in0.0 mm 0.00 in0.0 mm
05:22 AM 64.2°F17.9°C 60.3°F15.7°C 87% 3.1 mph S5.0 kmh S 4.5 mph7.2 kmh 30.04 in1017.3 mb 0.00 in0.0 mm 0.00 in0.0 mm 0.00 in0.0 mm
05:17 AM 63.9°F17.7°C 59.9°F15.5°C 87% 3.3 mph S5.3 kmh S 4.5 mph7.2 kmh 30.04 in1017.3 mb 0.00 in0.0 mm 0.00 in0.0 mm 0.00 in0.0 mm
05:12 AM 63.5°F17.5°C 59.6°F15.3°C 87% 4.0 mph S6.4 kmh S 4.5 mph7.2 kmh 30.04 in1017.3 mb 0.00 in0.0 mm 0.00 in0.0 mm 0.00 in0.0 mm
05:07 AM 63.0°F17.2°C 59.3°F15.2°C 88% 3.6 mph S5.8 kmh S 3.8 mph6.1 kmh 30.04 in1017.3 mb 0.00 in0.0 mm 0.00 in0.0 mm 0.00 in0.0 mm
05:02 AM 63.0°F17.2°C 59.3°F15.2°C 88% 3.1 mph S5.0 kmh S 3.8 mph6.1 kmh 30.04 in1017.3 mb 0.00 in0.0 mm 0.00 in0.0 mm 0.00 in0.0 mm
04:57 AM 62.8°F17.1°C 59.5°F15.3°C 89% 3.1 mph S5.0 kmh S 3.8 mph6.1 kmh 30.04 in1017.3 mb 0.00 in0.0 mm 0.00 in0.0 mm 0.00 in0.0 mm
04:52 AM 63.0°F17.2°C 60.3°F15.7°C 91% 2.8 mph S4.5 kmh S 3.8 mph6.1 kmh 30.04 in1017.3 mb 0.00 in0.0 mm 0.00 in0.0 mm 0.00 in0.0 mm
04:47 AM 64.0°F17.8°C 62.3°F16.8°C 94% 3.1 mph S5.0 kmh S 3.8 mph6.1 kmh 30.04 in1017.3 mb 0.00 in0.0 mm 0.00 in0.0 mm 0.00 in0.0 mm
04:42 AM 64.2°F17.9°C 62.5°F16.9°C 94% 2.0 mph S3.2 kmh S 3.1 mph5.0 kmh 30.04 in1017.3 mb 0.00 in0.0 mm 0.00 in0.0 mm 0.00 in0.0 mm
04:37 AM 64.2°F17.9°C 62.5°F16.9°C 94% 2.0 mph S3.2 kmh S 3.1 mph5.0 kmh 30.05 in1017.6 mb 0.00 in0.0 mm 0.00 in0.0 mm 0.00 in0.0 mm
04:32 AM 64.6°F18.1°C 62.8°F17.1°C 94% 1.5 mph S2.4 kmh S 2.2 mph3.5 kmh 30.05 in1017.6 mb 0.00 in0.0 mm 0.00 in0.0 mm 0.00 in0.0 mm
04:27 AM 64.9°F18.3°C 63.2°F17.3°C 94% 1.5 mph S2.4 kmh S 2.2 mph3.5 kmh 30.04 in1017.3 mb 0.00 in0.0 mm 0.00 in0.0 mm 0.00 in0.0 mm
04:22 AM 65.1°F18.4°C 63.3°F17.4°C 94% 1.3 mph S2.1 kmh S 1.6 mph2.6 kmh 30.05 in1017.6 mb 0.00 in0.0 mm 0.00 in0.0 mm 0.00 in0.0 mm
04:17 AM 65.5°F18.6°C 63.7°F17.6°C 94% 1.8 mph S2.9 kmh S 3.1 mph5.0 kmh 30.05 in1017.6 mb 0.00 in0.0 mm 0.00 in0.0 mm 0.00 in0.0 mm
04:12 AM 65.5°F18.6°C 64.0°F17.8°C 95% 2.6 mph S4.2 kmh S 3.1 mph5.0 kmh 30.04 in1017.3 mb 0.00 in0.0 mm 0.00 in0.0 mm 0.00 in0.0 mm
04:07 AM 65.1°F18.4°C 63.7°F17.6°C 95% 2.8 mph S4.5 kmh S 3.1 mph5.0 kmh 30.04 in1017.3 mb 0.00 in0.0 mm 0.00 in0.0 mm 0.00 in0.0 mm
04:02 AM 65.1°F18.4°C 63.7°F17.6°C 95% 2.8 mph S4.5 kmh S 3.1 mph5.0 kmh 30.04 in1017.3 mb 0.00 in0.0 mm 0.00 in0.0 mm 0.00 in0.0 mm
03:57 AM 65.1°F18.4°C 63.3°F17.4°C 94% 2.5 mph S4.0 kmh S 3.1 mph5.0 kmh 30.04 in1017.3 mb 0.00 in0.0 mm 0.00 in0.0 mm 0.00 in0.0 mm
03:52 AM 65.5°F18.6°C 63.7°F17.6°C 94% 2.8 mph S4.5 kmh S 3.1 mph5.0 kmh 30.04 in1017.3 mb 0.00 in0.0 mm 0.00 in0.0 mm 0.00 in0.0 mm
03:47 AM 66.0°F18.9°C 64.2°F17.9°C 94% 3.1 mph S5.0 kmh S 3.8 mph6.1 kmh 30.04 in1017.3 mb 0.00 in0.0 mm 0.00 in0.0 mm 0.00 in0.0 mm
03:42 AM 66.2°F19.0°C 64.4°F18.0°C 94% 3.4 mph S5.5 kmh S 3.8 mph6.1 kmh 30.04 in1017.3 mb 0.00 in0.0 mm 0.00 in0.0 mm 0.00 in0.0 mm
03:37 AM 66.4°F19.1°C 65.2°F18.4°C 96% 3.6 mph S5.8 kmh S 3.8 mph6.1 kmh 30.04 in1017.3 mb 0.00 in0.0 mm 0.00 in0.0 mm 0.00 in0.0 mm
03:32 AM 66.4°F19.1°C 65.5°F18.6°C 97% 3.4 mph S5.5 kmh S 3.8 mph6.1 kmh 30.04 in1017.3 mb 0.00 in0.0 mm 0.00 in0.0 mm 0.00 in0.0 mm
03:27 AM 66.4°F19.1°C 65.8°F18.8°C 98% 3.8 mph S6.1 kmh S 4.5 mph7.2 kmh 30.04 in1017.3 mb 0.00 in0.0 mm 0.00 in0.0 mm 0.00 in0.0 mm
03:22 AM 66.2°F19.0°C 65.6°F18.7°C 98% 3.8 mph S6.1 kmh S 4.5 mph7.2 kmh 30.04 in1017.3 mb 0.00 in0.0 mm 0.00 in0.0 mm 0.00 in0.0 mm
03:17 AM 66.2°F19.0°C 65.6°F18.7°C 98% 4.0 mph S6.4 kmh S 4.5 mph7.2 kmh 30.04 in1017.3 mb 0.00 in0.0 mm 0.00 in0.0 mm 0.00 in0.0 mm
03:12 AM 66.4°F19.1°C 65.8°F18.8°C 98% 3.8 mph S6.1 kmh S 3.8 mph6.1 kmh 30.04 in1017.3 mb 0.00 in0.0 mm 0.00 in0.0 mm 0.00 in0.0 mm
03:07 AM 66.2°F19.0°C 65.6°F18.7°C 98% 4.0 mph S6.4 kmh S 4.5 mph7.2 kmh 30.03 in1016.9 mb 0.00 in0.0 mm 0.00 in0.0 mm 0.00 in0.0 mm
03:02 AM 66.2°F19.0°C 65.6°F18.7°C 98% 3.8 mph S6.1 kmh S 4.5 mph7.2 kmh 30.03 in1016.9 mb 0.00 in0.0 mm 0.00 in0.0 mm 0.00 in0.0 mm
02:57 AM 66.2°F19.0°C 65.6°F18.7°C 98% 4.0 mph S6.4 kmh S 4.5 mph7.2 kmh 30.03 in1016.9 mb 0.00 in0.0 mm 0.00 in0.0 mm 0.00 in0.0 mm
02:52 AM 66.4°F19.1°C 65.8°F18.8°C 98% 3.8 mph S6.1 kmh S 4.5 mph7.2 kmh 30.04 in1017.3 mb 0.00 in0.0 mm 0.00 in0.0 mm 0.00 in0.0 mm
02:47 AM 66.6°F19.2°C 65.7°F18.7°C 97% 4.3 mph S6.9 kmh S 4.5 mph7.2 kmh 30.04 in1017.3 mb 0.00 in0.0 mm 0.00 in0.0 mm 0.00 in0.0 mm
02:42 AM 66.6°F19.2°C 65.7°F18.7°C 97% 4.0 mph S6.4 kmh S 4.5 mph7.2 kmh 30.04 in1017.3 mb 0.00 in0.0 mm 0.00 in0.0 mm 0.00 in0.0 mm
02:37 AM 66.6°F19.2°C 65.4°F18.6°C 96% 3.0 mph S4.8 kmh S 4.5 mph7.2 kmh 30.04 in1017.3 mb 0.00 in0.0 mm 0.00 in0.0 mm 0.00 in0.0 mm
02:32 AM 66.6°F19.2°C 65.1°F18.4°C 95% 2.5 mph S4.0 kmh S 3.8 mph6.1 kmh 30.04 in1017.3 mb 0.00 in0.0 mm 0.00 in0.0 mm 0.00 in0.0 mm
02:27 AM 66.7°F19.3°C 65.3°F18.5°C 95% 2.5 mph S4.0 kmh S 3.8 mph6.1 kmh 30.04 in1017.3 mb 0.00 in0.0 mm 0.00 in0.0 mm 0.00 in0.0 mm
02:22 AM 66.9°F19.4°C 65.1°F18.4°C 94% 3.1 mph S5.0 kmh S 3.8 mph6.1 kmh 30.04 in1017.3 mb 0.00 in0.0 mm 0.00 in0.0 mm 0.00 in0.0 mm
02:17 AM 67.3°F19.6°C 65.5°F18.6°C 94% 2.8 mph S4.5 kmh S 3.8 mph6.1 kmh 30.04 in1017.3 mb 0.00 in0.0 mm 0.00 in0.0 mm 0.00 in0.0 mm
02:12 AM 67.6°F19.8°C 65.5°F18.6°C 93% 1.5 mph S2.4 kmh S 2.2 mph3.5 kmh 30.04 in1017.3 mb 0.00 in0.0 mm 0.00 in0.0 mm 0.00 in0.0 mm
02:07 AM 67.8°F19.9°C 65.7°F18.7°C 93% 0.7 mph S1.1 kmh S 2.2 mph3.5 kmh 30.04 in1017.3 mb 0.00 in0.0 mm 0.00 in0.0 mm 0.00 in0.0 mm
02:02 AM 67.8°F19.9°C 65.7°F18.7°C 93% 0.5 mph S0.8 kmh S 1.6 mph2.6 kmh 30.04 in1017.3 mb 0.00 in0.0 mm 0.00 in0.0 mm 0.00 in0.0 mm
01:57 AM 68.4°F20.2°C 66.3°F19.1°C 93% 0.7 mph S1.1 kmh S 1.6 mph2.6 kmh 30.04 in1017.3 mb 0.00 in0.0 mm 0.00 in0.0 mm 0.00 in0.0 mm
01:52 AM 68.4°F20.2°C 66.3°F19.1°C 93% 1.0 mph S1.6 kmh S 1.6 mph2.6 kmh 30.04 in1017.3 mb 0.00 in0.0 mm 0.00 in0.0 mm 0.00 in0.0 mm
01:47 AM 68.4°F20.2°C 66.3°F19.1°C 93% 0.7 mph S1.1 kmh S 0.7 mph1.1 kmh 30.05 in1017.6 mb 0.00 in0.0 mm 0.00 in0.0 mm 0.00 in0.0 mm
01:42 AM 67.8°F19.9°C 65.7°F18.7°C 93% 0.4 mph S0.6 kmh S 0.7 mph1.1 kmh 30.05 in1017.6 mb 0.00 in0.0 mm 0.00 in0.0 mm 0.00 in0.0 mm
01:37 AM 67.8°F19.9°C 65.4°F18.6°C 92% 0.7 mph NE1.1 kmh NE 1.6 mph2.6 kmh 30.05 in1017.6 mb 0.00 in0.0 mm 0.00 in0.0 mm 0.00 in0.0 mm
01:32 AM 67.8°F19.9°C 65.4°F18.6°C 92% 1.0 mph E1.6 kmh E 1.6 mph2.6 kmh 30.05 in1017.6 mb 0.00 in0.0 mm 0.00 in0.0 mm 0.00 in0.0 mm
01:27 AM 67.8°F19.9°C 65.4°F18.6°C 92% 1.8 mph S2.9 kmh S 2.2 mph3.5 kmh 30.05 in1017.6 mb 0.00 in0.0 mm 0.00 in0.0 mm 0.00 in0.0 mm
01:22 AM 67.8°F19.9°C 65.4°F18.6°C 92% 1.8 mph S2.9 kmh S 2.2 mph3.5 kmh 30.05 in1017.6 mb 0.00 in0.0 mm 0.00 in0.0 mm 0.00 in0.0 mm
01:17 AM 68.4°F20.2°C 65.9°F18.8°C 92% 1.5 mph S2.4 kmh S 2.2 mph3.5 kmh 30.05 in1017.6 mb 0.00 in0.0 mm 0.00 in0.0 mm 0.00 in0.0 mm
01:12 AM 68.4°F20.2°C 65.6°F18.7°C 91% 1.0 mph S1.6 kmh S 1.6 mph2.6 kmh 30.05 in1017.6 mb 0.00 in0.0 mm 0.00 in0.0 mm 0.00 in0.0 mm
01:07 AM 68.7°F20.4°C 65.7°F18.7°C 90% 1.2 mph S1.9 kmh S 2.2 mph3.5 kmh 30.05 in1017.6 mb 0.00 in0.0 mm 0.00 in0.0 mm 0.00 in0.0 mm
01:02 AM 68.7°F20.4°C 65.7°F18.7°C 90% 1.5 mph S2.4 kmh S 2.2 mph3.5 kmh 30.06 in1017.9 mb 0.00 in0.0 mm 0.00 in0.0 mm 0.00 in0.0 mm
12:57 AM 69.1°F20.6°C 66.0°F18.9°C 90% 2.5 mph S4.0 kmh S 3.8 mph6.1 kmh 30.06 in1017.9 mb 0.00 in0.0 mm 0.00 in0.0 mm 0.00 in0.0 mm
12:52 AM 69.4°F20.8°C 66.1°F18.9°C 89% 2.5 mph S4.0 kmh S 3.8 mph6.1 kmh 30.07 in1018.3 mb 0.00 in0.0 mm 0.00 in0.0 mm 0.00 in0.0 mm
12:47 AM 69.8°F21.0°C 66.7°F19.3°C 90% 2.8 mph S4.5 kmh S 3.8 mph6.1 kmh 30.07 in1018.3 mb 0.00 in0.0 mm 0.00 in0.0 mm 0.00 in0.0 mm
12:42 AM 70.0°F21.1°C 66.9°F19.4°C 90% 1.5 mph S2.4 kmh S 2.2 mph3.5 kmh 30.06 in1017.9 mb 0.00 in0.0 mm 0.00 in0.0 mm 0.00 in0.0 mm
12:37 AM 69.8°F21.0°C 66.7°F19.3°C 90% 1.3 mph S2.1 kmh S 2.2 mph3.5 kmh 30.06 in1017.9 mb 0.00 in0.0 mm 0.00 in0.0 mm 0.00 in0.0 mm
12:32 AM 69.6°F20.9°C 66.6°F19.2°C 90% 1.0 mph S1.6 kmh S 1.6 mph2.6 kmh 30.06 in1017.9 mb 0.00 in0.0 mm 0.00 in0.0 mm 0.00 in0.0 mm
12:27 AM 69.4°F20.8°C 66.4°F19.1°C 90% 1.6 mph S2.6 kmh S 1.6 mph2.6 kmh 30.06 in1017.9 mb 0.00 in0.0 mm 0.00 in0.0 mm 0.00 in0.0 mm
12:22 AM 69.3°F20.7°C 66.2°F19.0°C 90% 1.0 mph S1.6 kmh S 1.6 mph2.6 kmh 30.07 in1018.3 mb 0.00 in0.0 mm 0.00 in0.0 mm 0.00 in0.0 mm
12:17 AM 69.3°F20.7°C 66.2°F19.0°C 90% 1.0 mph S1.6 kmh S 1.6 mph2.6 kmh 30.07 in1018.3 mb 0.00 in0.0 mm 0.00 in0.0 mm 0.00 in0.0 mm
12:12 AM 69.4°F20.8°C 66.1°F18.9°C 89% 1.3 mph S2.1 kmh S 2.2 mph3.5 kmh 30.07 in1018.3 mb 0.00 in0.0 mm 0.00 in0.0 mm 0.00 in0.0 mm
12:07 AM 69.6°F20.9°C 66.2°F19.0°C 89% 1.3 mph S2.1 kmh S 2.2 mph3.5 kmh 30.07 in1018.3 mb 0.00 in0.0 mm 0.00 in0.0 mm 0.00 in0.0 mm
12:02 AM 69.8°F21.0°C 66.4°F19.1°C 89% 1.0 mph S1.6 kmh S 2.2 mph3.5 kmh 30.07 in1018.3 mb 0.00 in0.0 mm 0.00 in0.0 mm 0.00 in0.0 mm